Tuesday, January 16, 2018, 6:52 AM EST
Back to Local

KPSF, Pittsfield Municipal Airport

Location: Pittsfield, MA, United States Lat: 42.433
Local Time: 6:52 AM EST (11:52 GMT) Lon: -73.283
Time Zone: US/Eastern Elev: 1194 ft

Show me the last for .
Show Decoded

2018-01-16 05:54 METAR KPSF 161054Z AUTO 01004KT 4SM -SN OVC012 M08/M11 A3039 RMK AO2 SLP312
                 P0000 T10781106 =
2018-01-16 05:42 METAR KPSF 161042Z AUTO 05004KT 2 1/2SM -SN OVC012 M08/M11 A3038 RMK AO2 P0000
                 T10781111 =
2018-01-16 04:54 METAR KPSF 160954Z AUTO 00000KT 4SM -SN OVC013 M08/M11 A3039 RMK AO2 SNB20
                 SLP312 P0000 T10781111 =
2018-01-16 03:54 METAR KPSF 160854Z AUTO 00000KT 10SM OVC014 M08/M12 A3039 RMK AO2 SLP314
                 T10781117 50001 =
2018-01-16 02:54 METAR KPSF 160754Z AUTO 08003KT 10SM OVC018 M08/M12 A3039 RMK AO2 SLP315
                 T10781117 =
2018-01-16 02:33 METAR KPSF 160733Z AUTO 00000KT 10SM BKN019 OVC036 M08/M12 A3040 RMK AO2
                 T10831122 =
2018-01-16 01:54 METAR KPSF 160654Z AUTO 00000KT 10SM SCT024 OVC070 M09/M13 A3040 RMK AO2 SLP317
                 T10891128 =
2018-01-16 00:54 METAR KPSF 160554Z AUTO 00000KT 10SM FEW075 M11/M13 A3039 RMK AO2 SLP316
                 T11061133 11061 21106 58015 =
2018-01-15 23:54 METAR KPSF 160454Z AUTO 00000KT 10SM FEW037 M09/M13 A3041 RMK AO2 SLP320
                 T10941133 410501161 =
2018-01-15 22:54 METAR KPSF 160354Z AUTO 00000KT 10SM CLR M08/M13 A3042 RMK AO2 SLP328 T10831133
                 =
2018-01-15 21:54 METAR KPSF 160254Z AUTO 07003KT 10SM FEW029 M08/M13 A3043 RMK AO2 SLP332
                 T10781133 58011 =
2018-01-15 21:17 METAR KPSF 160217Z AUTO VRB04KT 10SM FEW019 BKN030 M07/M14 A3044 RMK AO2
                 T10721139 =
2018-01-15 20:54 METAR KPSF 160154Z AUTO 07003KT 10SM BKN019 OVC029 M07/M14 A3046 RMK AO2 SLP341
                 T10671139 =
2018-01-15 19:54 METAR KPSF 160054Z AUTO 06003KT 10SM OVC028 M07/M16 A3045 RMK AO2 SLP339
                 T10671156 =
2018-01-15 18:54 METAR KPSF 152354Z AUTO 08003KT 10SM OVC029 M06/M14 A3047 RMK AO2 SLP345
                 T10611139 11050 21067 58003 =
2018-01-15 17:54 METAR KPSF 152254Z AUTO 06004KT 10SM OVC029 M06/M14 A3048 RMK AO2 SLP350
                 T10611144 =
2018-01-15 16:54 METAR KPSF 152154Z AUTO 05005KT 10SM OVC028 M06/M14 A3047 RMK AO2 SLP345
                 T10561144 =
2018-01-15 15:54 METAR KPSF 152054Z AUTO 00000KT 10SM OVC027 M06/M14 A3047 RMK AO2 SLP347
                 T10561144 56016 =
2018-01-15 14:54 METAR KPSF 151954Z AUTO 00000KT 10SM OVC028 M06/M16 A3048 RMK AO2 SLP349
                 T10561156 =
2018-01-15 14:41 METAR KPSF 151941Z AUTO 36003KT 10SM OVC028 M06/M17 A3048 RMK AO2 T10561172 =
2018-01-15 13:54 METAR KPSF 151854Z AUTO 05005KT 10SM CLR M06/M17 A3051 RMK AO2 SLP359 T10561172
                 =
2018-01-15 12:54 METAR KPSF 151754Z AUTO 07004KT 10SM CLR M07/M17 A3052 RMK AO2 SLP367 T10671167
                 11061 21139 58035 =
2018-01-15 11:54 METAR KPSF 151654Z AUTO 07007KT 10SM CLR M07/M17 A3057 RMK AO2 SLP383 T10671172
                 =
2018-01-15 10:54 METAR KPSF 151554Z AUTO 00000KT 10SM CLR M08/M18 A3060 RMK AO2 SLP396 T10831178
                 =
2018-01-15 09:54 METAR KPSF 151454Z AUTO 08004KT 10SM FEW023 M11/M18 A3063 RMK AO2 SLP407
                 T11061183 58001 =
2018-01-15 08:54 METAR KPSF 151354Z AUTO 08006KT 10SM CLR M12/M19 A3064 RMK AO2 SLP410 T11171189
                 =
2018-01-15 07:54 METAR KPSF 151254Z AUTO 06009KT 10SM CLR M13/M21 A3063 RMK AO2 SLP408 T11331206
                 =
2018-01-15 07:02 METAR KPSF 151202Z AUTO 06008KT 10SM SCT021 M13/M20 A3063 RMK AO2 T11331200 =
2018-01-15 06:54 METAR KPSF 151154Z AUTO 06007KT 10SM BKN020 M13/M19 A3063 RMK AO2 SLP409
                 T11331194 11128 21161 50006 =

Support USWX by starting your Amazon purchase here.